Urb Fuentebella, Puerto Rico
Current Conditions -  °F | °C
As of 7:56 PM on Sunday 25 Jan 2015 (Local Time) from TJSJ Reporting Station
Scattered Clouds Scattered Clouds  
Wind Chill: 79°   Ceiling: Unl
Heat Index: 81°   Visibility: 10mi
Dew Point: 68°   Wind: 5mph
Humidity: 69%   Direction: 110°ESE
Pressure: 30"   Gusts: NA
Location:  18.3893°N, 66.2481°W
Report Text: TJSJ 252356Z 11004KT 10SM SCT100 26/20 A3000 RMK AO2 SLP159 P0001 60005 T02610200 10300 20261 51010
Loading
Personal Weather Stations






























Interactive Weather Map New forecast layout! Learn more

10-Day Weather Forecast

Advertisements
Track Severe Weather on mobile